sensor_id;sensor_type;location;lat;lon;timestamp;P1;durP1;ratioP1;P2;durP2;ratioP2
39848;SDS011;25518;47.878;15.914;2023-04-04T00:02:14;4.95;;;2.13;;
39848;SDS011;25518;47.878;15.914;2023-04-04T00:05:05;4.83;;;1.90;;
39848;SDS011;25518;47.878;15.914;2023-04-04T00:07:56;5.95;;;2.30;;
39848;SDS011;25518;47.878;15.914;2023-04-04T00:10:46;5.90;;;1.90;;
39848;SDS011;25518;47.878;15.914;2023-04-04T00:13:36;4.82;;;2.00;;
39848;SDS011;25518;47.878;15.914;2023-04-04T00:16:26;4.37;;;2.00;;
39848;SDS011;25518;47.878;15.914;2023-04-04T00:19:16;5.93;;;2.07;;
39848;SDS011;25518;47.878;15.914;2023-04-04T00:22:06;4.32;;;2.03;;
39848;SDS011;25518;47.878;15.914;2023-04-04T00:24:57;3.50;;;1.90;;
39848;SDS011;25518;47.878;15.914;2023-04-04T00:27:47;4.72;;;2.20;;
39848;SDS011;25518;47.878;15.914;2023-04-04T00:33:18;5.82;;;2.28;;
39848;SDS011;25518;47.878;15.914;2023-04-04T00:36:08;7.05;;;2.42;;
39848;SDS011;25518;47.878;15.914;2023-04-04T00:38:58;5.85;;;2.13;;
39848;SDS011;25518;47.878;15.914;2023-04-04T00:41:48;4.60;;;2.17;;
39848;SDS011;25518;47.878;15.914;2023-04-04T00:44:38;5.05;;;1.98;;
39848;SDS011;25518;47.878;15.914;2023-04-04T00:47:29;5.15;;;2.15;;
39848;SDS011;25518;47.878;15.914;2023-04-04T00:50:19;6.45;;;2.17;;
39848;SDS011;25518;47.878;15.914;2023-04-04T00:53:09;3.97;;;2.13;;
39848;SDS011;25518;47.878;15.914;2023-04-04T00:55:59;5.50;;;2.15;;
39848;SDS011;25518;47.878;15.914;2023-04-04T00:58:49;6.53;;;2.20;;
39848;SDS011;25518;47.878;15.914;2023-04-04T01:01:39;4.65;;;2.20;;
39848;SDS011;25518;47.878;15.914;2023-04-04T01:04:29;4.47;;;2.00;;
39848;SDS011;25518;47.878;15.914;2023-04-04T01:07:19;4.97;;;2.00;;
39848;SDS011;25518;47.878;15.914;2023-04-04T01:10:09;4.97;;;2.00;;
39848;SDS011;25518;47.878;15.914;2023-04-04T01:13:00;4.18;;;2.08;;
39848;SDS011;25518;47.878;15.914;2023-04-04T01:15:51;4.95;;;2.13;;
39848;SDS011;25518;47.878;15.914;2023-04-04T01:18:42;5.00;;;1.95;;
39848;SDS011;25518;47.878;15.914;2023-04-04T01:21:33;5.40;;;2.10;;
39848;SDS011;25518;47.878;15.914;2023-04-04T01:24:23;3.85;;;1.92;;
39848;SDS011;25518;47.878;15.914;2023-04-04T01:27:20;5.50;;;1.83;;
39848;SDS011;25518;47.878;15.914;2023-04-04T01:32:44;3.90;;;2.03;;
39848;SDS011;25518;47.878;15.914;2023-04-04T01:35:42;4.97;;;1.88;;
39848;SDS011;25518;47.878;15.914;2023-04-04T01:38:44;4.30;;;1.95;;
39848;SDS011;25518;47.878;15.914;2023-04-04T01:41:56;6.30;;;1.75;;
39848;SDS011;25518;47.878;15.914;2023-04-04T01:44:53;4.10;;;1.97;;
39848;SDS011;25518;47.878;15.914;2023-04-04T01:47:45;3.58;;;1.95;;
39848;SDS011;25518;47.878;15.914;2023-04-04T01:50:35;4.00;;;1.95;;
39848;SDS011;25518;47.878;15.914;2023-04-04T01:53:25;4.28;;;2.13;;
39848;SDS011;25518;47.878;15.914;2023-04-04T01:56:15;3.42;;;1.80;;
39848;SDS011;25518;47.878;15.914;2023-04-04T01:59:05;4.30;;;1.90;;
39848;SDS011;25518;47.878;15.914;2023-04-04T02:01:55;4.53;;;2.00;;
39848;SDS011;25518;47.878;15.914;2023-04-04T02:04:45;5.55;;;2.10;;
39848;SDS011;25518;47.878;15.914;2023-04-04T02:07:35;5.65;;;2.00;;
39848;SDS011;25518;47.878;15.914;2023-04-04T02:10:25;2.97;;;1.63;;
39848;SDS011;25518;47.878;15.914;2023-04-04T02:13:14;5.85;;;2.17;;
39848;SDS011;25518;47.878;15.914;2023-04-04T02:16:04;3.88;;;1.98;;
39848;SDS011;25518;47.878;15.914;2023-04-04T02:18:54;4.32;;;2.05;;
39848;SDS011;25518;47.878;15.914;2023-04-04T02:21:44;4.15;;;2.00;;
39848;SDS011;25518;47.878;15.914;2023-04-04T02:24:34;6.85;;;1.90;;
39848;SDS011;25518;47.878;15.914;2023-04-04T02:27:24;5.32;;;1.98;;
39848;SDS011;25518;47.878;15.914;2023-04-04T02:30:14;4.43;;;1.88;;
39848;SDS011;25518;47.878;15.914;2023-04-04T02:33:04;5.28;;;2.10;;
39848;SDS011;25518;47.878;15.914;2023-04-04T02:35:55;4.55;;;1.90;;
39848;SDS011;25518;47.878;15.914;2023-04-04T02:38:46;4.68;;;2.00;;
39848;SDS011;25518;47.878;15.914;2023-04-04T02:41:36;4.28;;;1.90;;
39848;SDS011;25518;47.878;15.914;2023-04-04T02:44:26;3.65;;;1.83;;
39848;SDS011;25518;47.878;15.914;2023-04-04T02:47:16;5.40;;;2.13;;
39848;SDS011;25518;47.878;15.914;2023-04-04T02:52:46;4.35;;;2.00;;
39848;SDS011;25518;47.878;15.914;2023-04-04T02:55:36;4.85;;;2.10;;
39848;SDS011;25518;47.878;15.914;2023-04-04T02:58:25;5.13;;;1.80;;
39848;SDS011;25518;47.878;15.914;2023-04-04T03:18:35;3.97;;;1.95;;
39848;SDS011;25518;47.878;15.914;2023-04-04T03:21:28;3.80;;;2.10;;
39848;SDS011;25518;47.878;15.914;2023-04-04T03:24:19;4.25;;;2.00;;
39848;SDS011;25518;47.878;15.914;2023-04-04T03:27:08;5.30;;;2.05;;
39848;SDS011;25518;47.878;15.914;2023-04-04T03:29:59;4.38;;;1.65;;
39848;SDS011;25518;47.878;15.914;2023-04-04T03:32:49;5.13;;;1.67;;
39848;SDS011;25518;47.878;15.914;2023-04-04T03:35:40;2.78;;;1.50;;
39848;SDS011;25518;47.878;15.914;2023-04-04T03:38:29;3.60;;;1.50;;
39848;SDS011;25518;47.878;15.914;2023-04-04T03:41:20;3.63;;;1.60;;
39848;SDS011;25518;47.878;15.914;2023-04-04T03:44:09;3.17;;;1.55;;
39848;SDS011;25518;47.878;15.914;2023-04-04T03:46:59;5.22;;;1.75;;
39848;SDS011;25518;47.878;15.914;2023-04-04T03:49:49;3.80;;;1.90;;
39848;SDS011;25518;47.878;15.914;2023-04-04T03:52:40;3.83;;;1.65;;
39848;SDS011;25518;47.878;15.914;2023-04-04T03:55:30;6.57;;;1.97;;
39848;SDS011;25518;47.878;15.914;2023-04-04T03:58:22;4.43;;;1.80;;
39848;SDS011;25518;47.878;15.914;2023-04-04T04:03:53;4.72;;;1.70;;
39848;SDS011;25518;47.878;15.914;2023-04-04T04:06:43;3.57;;;1.63;;
39848;SDS011;25518;47.878;15.914;2023-04-04T04:09:33;3.33;;;1.70;;
39848;SDS011;25518;47.878;15.914;2023-04-04T04:12:24;4.93;;;2.05;;
39848;SDS011;25518;47.878;15.914;2023-04-04T04:15:15;3.33;;;1.63;;
39848;SDS011;25518;47.878;15.914;2023-04-04T04:18:05;5.00;;;2.00;;
39848;SDS011;25518;47.878;15.914;2023-04-04T04:26:16;4.55;;;1.83;;
39848;SDS011;25518;47.878;15.914;2023-04-04T04:29:05;5.25;;;1.88;;
39848;SDS011;25518;47.878;15.914;2023-04-04T04:31:56;5.72;;;2.03;;
39848;SDS011;25518;47.878;15.914;2023-04-04T04:34:45;4.07;;;1.80;;
39848;SDS011;25518;47.878;15.914;2023-04-04T04:37:35;4.32;;;1.77;;
39848;SDS011;25518;47.878;15.914;2023-04-04T04:43:05;6.03;;;2.20;;
39848;SDS011;25518;47.878;15.914;2023-04-04T04:45:55;4.22;;;1.50;;
39848;SDS011;25518;47.878;15.914;2023-04-04T04:48:45;4.07;;;1.65;;
39848;SDS011;25518;47.878;15.914;2023-04-04T04:51:34;4.97;;;1.88;;
39848;SDS011;25518;47.878;15.914;2023-04-04T04:54:24;3.28;;;1.40;;
39848;SDS011;25518;47.878;15.914;2023-04-04T04:57:13;4.30;;;1.60;;
39848;SDS011;25518;47.878;15.914;2023-04-04T05:00:04;3.58;;;1.60;;
39848;SDS011;25518;47.878;15.914;2023-04-04T05:02:54;3.33;;;1.90;;
39848;SDS011;25518;47.878;15.914;2023-04-04T05:05:44;4.25;;;1.75;;
39848;SDS011;25518;47.878;15.914;2023-04-04T05:08:35;3.25;;;1.58;;
39848;SDS011;25518;47.878;15.914;2023-04-04T05:11:25;4.93;;;1.77;;
39848;SDS011;25518;47.878;15.914;2023-04-04T05:14:15;4.38;;;2.20;;
39848;SDS011;25518;47.878;15.914;2023-04-04T05:17:05;4.57;;;1.50;;
39848;SDS011;25518;47.878;15.914;2023-04-04T05:19:55;4.97;;;1.45;;
39848;SDS011;25518;47.878;15.914;2023-04-04T05:22:44;3.50;;;1.50;;
39848;SDS011;25518;47.878;15.914;2023-04-04T05:25:35;3.08;;;1.40;;
39848;SDS011;25518;47.878;15.914;2023-04-04T05:28:24;3.17;;;1.38;;
39848;SDS011;25518;47.878;15.914;2023-04-04T05:31:14;4.40;;;1.65;;
39848;SDS011;25518;47.878;15.914;2023-04-04T05:34:04;4.07;;;1.90;;
39848;SDS011;25518;47.878;15.914;2023-04-04T05:36:56;4.53;;;1.80;;
39848;SDS011;25518;47.878;15.914;2023-04-04T05:39:46;5.22;;;1.88;;
39848;SDS011;25518;47.878;15.914;2023-04-04T05:42:37;3.85;;;1.80;;
39848;SDS011;25518;47.878;15.914;2023-04-04T05:45:26;3.38;;;1.52;;
39848;SDS011;25518;47.878;15.914;2023-04-04T05:48:17;3.28;;;1.75;;
39848;SDS011;25518;47.878;15.914;2023-04-04T05:51:07;3.17;;;1.67;;
39848;SDS011;25518;47.878;15.914;2023-04-04T05:53:56;5.60;;;1.60;;
39848;SDS011;25518;47.878;15.914;2023-04-04T05:56:46;3.00;;;1.40;;
39848;SDS011;25518;47.878;15.914;2023-04-04T05:59:36;3.60;;;1.40;;
39848;SDS011;25518;47.878;15.914;2023-04-04T06:02:26;2.70;;;1.40;;
39848;SDS011;25518;47.878;15.914;2023-04-04T06:05:17;5.45;;;1.67;;
39848;SDS011;25518;47.878;15.914;2023-04-04T06:08:07;5.37;;;1.37;;
39848;SDS011;25518;47.878;15.914;2023-04-04T06:10:57;2.72;;;1.48;;
39848;SDS011;25518;47.878;15.914;2023-04-04T06:13:48;4.30;;;1.40;;
39848;SDS011;25518;47.878;15.914;2023-04-04T06:16:40;2.92;;;1.27;;
39848;SDS011;25518;47.878;15.914;2023-04-04T06:19:30;2.85;;;1.23;;
39848;SDS011;25518;47.878;15.914;2023-04-04T06:22:16;2.08;;;1.15;;
39848;SDS011;25518;47.878;15.914;2023-04-04T06:25:06;4.53;;;1.40;;
39848;SDS011;25518;47.878;15.914;2023-04-04T06:27:58;3.38;;;1.20;;
39848;SDS011;25518;47.878;15.914;2023-04-04T06:30:49;4.18;;;1.02;;
39848;SDS011;25518;47.878;15.914;2023-04-04T06:33:40;2.65;;;1.10;;
39848;SDS011;25518;47.878;15.914;2023-04-04T06:36:32;3.63;;;1.40;;
39848;SDS011;25518;47.878;15.914;2023-04-04T06:39:21;2.28;;;1.20;;
39848;SDS011;25518;47.878;15.914;2023-04-04T06:42:12;3.08;;;1.10;;
39848;SDS011;25518;47.878;15.914;2023-04-04T06:45:02;3.28;;;1.15;;
39848;SDS011;25518;47.878;15.914;2023-04-04T06:47:52;2.60;;;1.10;;
39848;SDS011;25518;47.878;15.914;2023-04-04T06:50:42;3.63;;;1.20;;
39848;SDS011;25518;47.878;15.914;2023-04-04T06:53:36;4.18;;;1.20;;
39848;SDS011;25518;47.878;15.914;2023-04-04T06:56:27;3.58;;;1.33;;
39848;SDS011;25518;47.878;15.914;2023-04-04T06:59:17;2.30;;;1.13;;
39848;SDS011;25518;47.878;15.914;2023-04-04T07:02:10;2.65;;;1.05;;
39848;SDS011;25518;47.878;15.914;2023-04-04T07:04:59;2.42;;;0.98;;
39848;SDS011;25518;47.878;15.914;2023-04-04T07:07:51;2.53;;;1.02;;
39848;SDS011;25518;47.878;15.914;2023-04-04T07:13:22;3.05;;;1.23;;
39848;SDS011;25518;47.878;15.914;2023-04-04T07:16:12;3.80;;;1.25;;
39848;SDS011;25518;47.878;15.914;2023-04-04T07:19:05;2.58;;;1.35;;
39848;SDS011;25518;47.878;15.914;2023-04-04T07:21:55;3.42;;;1.27;;
39848;SDS011;25518;47.878;15.914;2023-04-04T07:24:45;3.42;;;1.33;;
39848;SDS011;25518;47.878;15.914;2023-04-04T07:27:36;1.80;;;1.10;;
39848;SDS011;25518;47.878;15.914;2023-04-04T07:30:26;4.28;;;1.15;;
39848;SDS011;25518;47.878;15.914;2023-04-04T07:33:18;2.70;;;1.00;;
39848;SDS011;25518;47.878;15.914;2023-04-04T07:36:08;2.72;;;1.20;;
39848;SDS011;25518;47.878;15.914;2023-04-04T07:38:58;5.07;;;1.20;;
39848;SDS011;25518;47.878;15.914;2023-04-04T07:44:28;3.83;;;1.50;;
39848;SDS011;25518;47.878;15.914;2023-04-04T07:47:18;2.33;;;1.20;;
39848;SDS011;25518;47.878;15.914;2023-04-04T08:08:51;3.90;;;1.30;;
39848;SDS011;25518;47.878;15.914;2023-04-04T08:11:42;3.10;;;1.20;;
39848;SDS011;25518;47.878;15.914;2023-04-04T08:14:32;3.00;;;1.23;;
39848;SDS011;25518;47.878;15.914;2023-04-04T08:17:22;3.22;;;1.30;;
39848;SDS011;25518;47.878;15.914;2023-04-04T08:20:13;2.80;;;1.20;;
39848;SDS011;25518;47.878;15.914;2023-04-04T08:23:03;4.18;;;1.60;;
39848;SDS011;25518;47.878;15.914;2023-04-04T08:25:53;3.63;;;1.40;;
39848;SDS011;25518;47.878;15.914;2023-04-04T08:28:43;2.63;;;1.20;;
39848;SDS011;25518;47.878;15.914;2023-04-04T08:31:33;2.53;;;1.13;;
39848;SDS011;25518;47.878;15.914;2023-04-04T08:34:23;2.65;;;1.05;;
39848;SDS011;25518;47.878;15.914;2023-04-04T08:37:14;3.60;;;1.20;;
39848;SDS011;25518;47.878;15.914;2023-04-04T08:40:04;1.67;;;0.90;;
39848;SDS011;25518;47.878;15.914;2023-04-04T08:42:55;2.95;;;1.20;;
39848;SDS011;25518;47.878;15.914;2023-04-04T08:45:46;2.15;;;1.00;;
39848;SDS011;25518;47.878;15.914;2023-04-04T08:48:38;2.78;;;1.23;;
39848;SDS011;25518;47.878;15.914;2023-04-04T08:51:31;1.80;;;1.00;;
39848;SDS011;25518;47.878;15.914;2023-04-04T08:54:23;2.13;;;1.10;;
39848;SDS011;25518;47.878;15.914;2023-04-04T08:57:14;3.00;;;1.15;;
39848;SDS011;25518;47.878;15.914;2023-04-04T09:00:04;1.63;;;0.80;;
39848;SDS011;25518;47.878;15.914;2023-04-04T09:02:58;2.92;;;1.20;;
39848;SDS011;25518;47.878;15.914;2023-04-04T09:05:50;2.25;;;1.02;;
39848;SDS011;25518;47.878;15.914;2023-04-04T09:08:42;2.72;;;1.05;;
39848;SDS011;25518;47.878;15.914;2023-04-04T09:11:34;3.08;;;1.50;;
39848;SDS011;25518;47.878;15.914;2023-04-04T09:14:24;2.55;;;1.20;;
39848;SDS011;25518;47.878;15.914;2023-04-04T09:17:15;2.65;;;1.02;;
39848;SDS011;25518;47.878;15.914;2023-04-04T09:20:40;3.40;;;1.20;;
39848;SDS011;25518;47.878;15.914;2023-04-04T09:23:31;3.80;;;1.10;;
39848;SDS011;25518;47.878;15.914;2023-04-04T09:26:20;3.63;;;1.40;;
39848;SDS011;25518;47.878;15.914;2023-04-04T09:29:10;3.92;;;1.17;;
39848;SDS011;25518;47.878;15.914;2023-04-04T09:32:00;2.20;;;1.25;;
39848;SDS011;25518;47.878;15.914;2023-04-04T09:34:49;2.77;;;1.20;;
39848;SDS011;25518;47.878;15.914;2023-04-04T09:37:39;3.17;;;1.38;;
39848;SDS011;25518;47.878;15.914;2023-04-04T09:40:30;3.00;;;1.30;;
39848;SDS011;25518;47.878;15.914;2023-04-04T09:43:21;2.53;;;1.23;;
39848;SDS011;25518;47.878;15.914;2023-04-04T09:46:13;2.22;;;1.08;;
39848;SDS011;25518;47.878;15.914;2023-04-04T09:49:03;2.95;;;1.20;;
39848;SDS011;25518;47.878;15.914;2023-04-04T09:51:58;3.00;;;1.40;;
39848;SDS011;25518;47.878;15.914;2023-04-04T09:55:04;3.92;;;1.40;;
39848;SDS011;25518;47.878;15.914;2023-04-04T09:57:54;2.60;;;1.20;;
39848;SDS011;25518;47.878;15.914;2023-04-04T10:00:45;2.33;;;1.13;;
39848;SDS011;25518;47.878;15.914;2023-04-04T10:03:36;3.50;;;1.38;;
39848;SDS011;25518;47.878;15.914;2023-04-04T10:06:27;2.80;;;1.30;;
39848;SDS011;25518;47.878;15.914;2023-04-04T10:09:18;5.03;;;1.20;;
39848;SDS011;25518;47.878;15.914;2023-04-04T10:12:09;3.30;;;1.30;;
39848;SDS011;25518;47.878;15.914;2023-04-04T10:14:59;2.35;;;1.17;;
39848;SDS011;25518;47.878;15.914;2023-04-04T10:17:50;5.35;;;1.35;;
39848;SDS011;25518;47.878;15.914;2023-04-04T10:20:43;1.87;;;1.10;;
39848;SDS011;25518;47.878;15.914;2023-04-04T10:23:33;3.05;;;1.25;;
39848;SDS011;25518;47.878;15.914;2023-04-04T10:26:25;4.75;;;1.27;;
39848;SDS011;25518;47.878;15.914;2023-04-04T10:29:14;4.93;;;1.83;;
39848;SDS011;25518;47.878;15.914;2023-04-04T10:32:05;3.10;;;1.30;;
39848;SDS011;25518;47.878;15.914;2023-04-04T10:35:02;3.08;;;1.23;;
39848;SDS011;25518;47.878;15.914;2023-04-04T10:37:57;3.45;;;1.30;;
39848;SDS011;25518;47.878;15.914;2023-04-04T10:40:50;2.15;;;1.20;;
39848;SDS011;25518;47.878;15.914;2023-04-04T10:43:41;2.60;;;1.25;;
39848;SDS011;25518;47.878;15.914;2023-04-04T10:46:35;3.80;;;1.80;;
39848;SDS011;25518;47.878;15.914;2023-04-04T10:49:29;2.05;;;1.17;;
39848;SDS011;25518;47.878;15.914;2023-04-04T10:52:21;4.10;;;1.60;;
39848;SDS011;25518;47.878;15.914;2023-04-04T10:55:13;3.38;;;1.65;;
39848;SDS011;25518;47.878;15.914;2023-04-04T10:58:03;5.57;;;1.90;;
39848;SDS011;25518;47.878;15.914;2023-04-04T11:00:58;4.18;;;1.38;;
39848;SDS011;25518;47.878;15.914;2023-04-04T11:04:18;4.45;;;1.85;;
39848;SDS011;25518;47.878;15.914;2023-04-04T11:07:12;3.40;;;1.40;;
39848;SDS011;25518;47.878;15.914;2023-04-04T11:10:04;3.28;;;1.52;;
39848;SDS011;25518;47.878;15.914;2023-04-04T11:13:13;4.38;;;1.90;;
39848;SDS011;25518;47.878;15.914;2023-04-04T11:16:10;2.75;;;1.40;;
39848;SDS011;25518;47.878;15.914;2023-04-04T11:19:03;3.42;;;1.30;;
39848;SDS011;25518;47.878;15.914;2023-04-04T11:21:53;6.95;;;1.55;;
39848;SDS011;25518;47.878;15.914;2023-04-04T11:24:46;3.00;;;1.50;;
39848;SDS011;25518;47.878;15.914;2023-04-04T11:27:36;4.47;;;2.10;;
39848;SDS011;25518;47.878;15.914;2023-04-04T11:30:25;4.20;;;1.80;;
39848;SDS011;25518;47.878;15.914;2023-04-04T11:33:24;4.72;;;1.88;;
39848;SDS011;25518;47.878;15.914;2023-04-04T11:42:17;3.33;;;1.70;;
39848;SDS011;25518;47.878;15.914;2023-04-04T11:45:09;3.25;;;1.48;;
39848;SDS011;25518;47.878;15.914;2023-04-04T11:48:07;5.47;;;1.55;;
39848;SDS011;25518;47.878;15.914;2023-04-04T11:50:57;2.80;;;1.60;;
39848;SDS011;25518;47.878;15.914;2023-04-04T11:53:47;3.53;;;1.48;;
39848;SDS011;25518;47.878;15.914;2023-04-04T11:56:37;3.33;;;1.63;;
39848;SDS011;25518;47.878;15.914;2023-04-04T11:59:27;2.88;;;1.40;;
39848;SDS011;25518;47.878;15.914;2023-04-04T12:02:18;3.63;;;1.63;;
39848;SDS011;25518;47.878;15.914;2023-04-04T12:05:10;3.13;;;1.60;;
39848;SDS011;25518;47.878;15.914;2023-04-04T12:08:00;3.40;;;1.50;;
39848;SDS011;25518;47.878;15.914;2023-04-04T12:10:51;3.30;;;1.30;;
39848;SDS011;25518;47.878;15.914;2023-04-04T12:13:41;3.22;;;1.63;;
39848;SDS011;25518;47.878;15.914;2023-04-04T12:16:32;2.72;;;1.58;;
39848;SDS011;25518;47.878;15.914;2023-04-04T12:19:25;3.15;;;1.50;;
39848;SDS011;25518;47.878;15.914;2023-04-04T12:22:16;4.28;;;1.92;;
39848;SDS011;25518;47.878;15.914;2023-04-04T12:25:06;4.38;;;1.90;;
39848;SDS011;25518;47.878;15.914;2023-04-04T12:27:56;5.22;;;1.83;;
39848;SDS011;25518;47.878;15.914;2023-04-04T12:30:46;4.03;;;1.65;;
39848;SDS011;25518;47.878;15.914;2023-04-04T12:33:38;5.73;;;2.07;;
39848;SDS011;25518;47.878;15.914;2023-04-04T12:36:30;4.07;;;1.75;;
39848;SDS011;25518;47.878;15.914;2023-04-04T12:39:24;3.58;;;1.65;;
39848;SDS011;25518;47.878;15.914;2023-04-04T12:42:19;4.53;;;1.60;;
39848;SDS011;25518;47.878;15.914;2023-04-04T12:45:10;4.10;;;1.60;;
39848;SDS011;25518;47.878;15.914;2023-04-04T12:48:01;5.50;;;1.77;;
39848;SDS011;25518;47.878;15.914;2023-04-04T12:51:00;4.43;;;1.92;;
39848;SDS011;25518;47.878;15.914;2023-04-04T12:53:50;4.82;;;1.88;;
39848;SDS011;25518;47.878;15.914;2023-04-04T12:56:41;3.42;;;1.70;;
39848;SDS011;25518;47.878;15.914;2023-04-04T12:59:31;4.10;;;1.80;;
39848;SDS011;25518;47.878;15.914;2023-04-04T13:02:22;3.75;;;2.00;;
39848;SDS011;25518;47.878;15.914;2023-04-04T13:05:12;5.07;;;1.90;;
39848;SDS011;25518;47.878;15.914;2023-04-04T13:08:04;2.67;;;1.60;;
39848;SDS011;25518;47.878;15.914;2023-04-04T13:10:56;5.70;;;1.90;;
39848;SDS011;25518;47.878;15.914;2023-04-04T13:13:47;2.70;;;1.40;;
39848;SDS011;25518;47.878;15.914;2023-04-04T13:17:00;4.07;;;1.80;;
39848;SDS011;25518;47.878;15.914;2023-04-04T13:19:52;3.25;;;1.70;;
39848;SDS011;25518;47.878;15.914;2023-04-04T13:22:42;3.35;;;1.60;;
39848;SDS011;25518;47.878;15.914;2023-04-04T13:25:32;3.80;;;1.60;;
39848;SDS011;25518;47.878;15.914;2023-04-04T13:28:23;6.90;;;2.83;;
39848;SDS011;25518;47.878;15.914;2023-04-04T13:31:14;6.70;;;2.90;;
39848;SDS011;25518;47.878;15.914;2023-04-04T13:34:05;5.15;;;1.65;;
39848;SDS011;25518;47.878;15.914;2023-04-04T13:36:54;4.82;;;1.90;;
39848;SDS011;25518;47.878;15.914;2023-04-04T13:39:44;3.43;;;1.67;;
39848;SDS011;25518;47.878;15.914;2023-04-04T13:42:33;2.83;;;1.45;;
39848;SDS011;25518;47.878;15.914;2023-04-04T13:45:23;5.28;;;2.00;;
39848;SDS011;25518;47.878;15.914;2023-04-04T13:48:13;5.15;;;2.05;;
39848;SDS011;25518;47.878;15.914;2023-04-04T13:51:04;3.97;;;1.70;;
39848;SDS011;25518;47.878;15.914;2023-04-04T13:53:53;3.70;;;1.52;;
39848;SDS011;25518;47.878;15.914;2023-04-04T13:56:43;5.20;;;1.90;;
39848;SDS011;25518;47.878;15.914;2023-04-04T13:59:35;3.70;;;1.70;;
39848;SDS011;25518;47.878;15.914;2023-04-04T14:02:24;3.92;;;1.63;;
39848;SDS011;25518;47.878;15.914;2023-04-04T14:05:14;4.13;;;1.85;;
39848;SDS011;25518;47.878;15.914;2023-04-04T14:08:03;3.70;;;1.60;;
39848;SDS011;25518;47.878;15.914;2023-04-04T14:10:53;5.03;;;2.37;;
39848;SDS011;25518;47.878;15.914;2023-04-04T14:13:43;4.95;;;1.90;;
39848;SDS011;25518;47.878;15.914;2023-04-04T14:16:33;3.50;;;1.55;;
39848;SDS011;25518;47.878;15.914;2023-04-04T14:19:23;4.10;;;1.90;;
39848;SDS011;25518;47.878;15.914;2023-04-04T14:22:13;4.18;;;1.65;;
39848;SDS011;25518;47.878;15.914;2023-04-04T14:25:03;3.35;;;1.67;;
39848;SDS011;25518;47.878;15.914;2023-04-04T14:27:53;5.10;;;1.60;;
39848;SDS011;25518;47.878;15.914;2023-04-04T14:30:42;5.25;;;1.65;;
39848;SDS011;25518;47.878;15.914;2023-04-04T14:33:32;4.35;;;1.75;;
39848;SDS011;25518;47.878;15.914;2023-04-04T14:36:22;5.70;;;1.70;;
39848;SDS011;25518;47.878;15.914;2023-04-04T14:39:11;3.90;;;1.80;;
39848;SDS011;25518;47.878;15.914;2023-04-04T14:42:01;3.65;;;1.70;;
39848;SDS011;25518;47.878;15.914;2023-04-04T14:44:51;4.90;;;1.80;;
39848;SDS011;25518;47.878;15.914;2023-04-04T14:47:41;4.55;;;2.00;;
39848;SDS011;25518;47.878;15.914;2023-04-04T14:50:30;3.80;;;1.58;;
39848;SDS011;25518;47.878;15.914;2023-04-04T14:53:20;3.70;;;1.70;;
39848;SDS011;25518;47.878;15.914;2023-04-04T14:56:11;5.43;;;2.00;;
39848;SDS011;25518;47.878;15.914;2023-04-04T14:59:01;3.92;;;1.80;;
39848;SDS011;25518;47.878;15.914;2023-04-04T15:01:53;4.13;;;1.93;;
39848;SDS011;25518;47.878;15.914;2023-04-04T15:04:43;4.00;;;1.75;;
39848;SDS011;25518;47.878;15.914;2023-04-04T15:07:32;3.78;;;1.88;;
39848;SDS011;25518;47.878;15.914;2023-04-04T15:10:22;6.78;;;2.20;;
39848;SDS011;25518;47.878;15.914;2023-04-04T15:13:12;4.63;;;1.80;;
39848;SDS011;25518;47.878;15.914;2023-04-04T15:16:01;4.10;;;1.73;;
39848;SDS011;25518;47.878;15.914;2023-04-04T15:18:52;3.95;;;1.90;;
39848;SDS011;25518;47.878;15.914;2023-04-04T15:21:41;4.60;;;1.90;;
39848;SDS011;25518;47.878;15.914;2023-04-04T15:24:31;4.43;;;2.23;;
39848;SDS011;25518;47.878;15.914;2023-04-04T15:27:20;3.97;;;2.00;;
39848;SDS011;25518;47.878;15.914;2023-04-04T15:30:11;4.22;;;2.17;;
39848;SDS011;25518;47.878;15.914;2023-04-04T15:33:01;4.18;;;2.25;;
39848;SDS011;25518;47.878;15.914;2023-04-04T15:35:50;4.50;;;2.10;;
39848;SDS011;25518;47.878;15.914;2023-04-04T15:38:40;5.88;;;2.70;;
39848;SDS011;25518;47.878;15.914;2023-04-04T15:41:29;5.07;;;2.30;;
39848;SDS011;25518;47.878;15.914;2023-04-04T15:44:19;4.60;;;2.20;;
39848;SDS011;25518;47.878;15.914;2023-04-04T15:47:09;6.53;;;2.47;;
39848;SDS011;25518;47.878;15.914;2023-04-04T15:49:59;5.57;;;2.97;;
39848;SDS011;25518;47.878;15.914;2023-04-04T15:52:48;5.57;;;2.20;;
39848;SDS011;25518;47.878;15.914;2023-04-04T15:55:41;5.60;;;2.13;;
39848;SDS011;25518;47.878;15.914;2023-04-04T15:58:32;3.35;;;1.88;;
39848;SDS011;25518;47.878;15.914;2023-04-04T16:01:21;6.78;;;2.75;;
39848;SDS011;25518;47.878;15.914;2023-04-04T16:04:11;5.38;;;2.65;;
39848;SDS011;25518;47.878;15.914;2023-04-04T16:07:00;14.43;;;7.07;;
39848;SDS011;25518;47.878;15.914;2023-04-04T16:09:50;6.55;;;2.60;;
39848;SDS011;25518;47.878;15.914;2023-04-04T16:12:40;5.50;;;2.60;;
39848;SDS011;25518;47.878;15.914;2023-04-04T16:15:30;4.50;;;2.43;;
39848;SDS011;25518;47.878;15.914;2023-04-04T16:18:20;5.13;;;2.67;;
39848;SDS011;25518;47.878;15.914;2023-04-04T16:21:09;7.78;;;3.63;;
39848;SDS011;25518;47.878;15.914;2023-04-04T16:23:59;5.85;;;2.45;;
39848;SDS011;25518;47.878;15.914;2023-04-04T16:26:51;4.23;;;2.20;;
39848;SDS011;25518;47.878;15.914;2023-04-04T16:29:41;6.43;;;2.40;;
39848;SDS011;25518;47.878;15.914;2023-04-04T16:32:30;4.97;;;2.30;;
39848;SDS011;25518;47.878;15.914;2023-04-04T16:35:22;4.95;;;2.20;;
39848;SDS011;25518;47.878;15.914;2023-04-04T16:38:12;5.53;;;2.25;;
39848;SDS011;25518;47.878;15.914;2023-04-04T16:41:01;4.88;;;2.63;;
39848;SDS011;25518;47.878;15.914;2023-04-04T16:43:52;5.28;;;2.42;;
39848;SDS011;25518;47.878;15.914;2023-04-04T16:46:43;3.90;;;2.20;;
39848;SDS011;25518;47.878;15.914;2023-04-04T16:49:34;5.30;;;2.90;;
39848;SDS011;25518;47.878;15.914;2023-04-04T16:52:24;6.57;;;2.78;;
39848;SDS011;25518;47.878;15.914;2023-04-04T16:55:14;17.23;;;7.30;;
39848;SDS011;25518;47.878;15.914;2023-04-04T16:58:03;7.13;;;3.60;;
39848;SDS011;25518;47.878;15.914;2023-04-04T17:00:53;9.93;;;4.65;;
39848;SDS011;25518;47.878;15.914;2023-04-04T17:03:43;7.00;;;2.88;;
39848;SDS011;25518;47.878;15.914;2023-04-04T17:06:33;5.90;;;2.90;;
39848;SDS011;25518;47.878;15.914;2023-04-04T17:09:22;6.28;;;2.55;;
39848;SDS011;25518;47.878;15.914;2023-04-04T17:12:12;6.43;;;2.60;;
39848;SDS011;25518;47.878;15.914;2023-04-04T17:15:02;5.38;;;2.58;;
39848;SDS011;25518;47.878;15.914;2023-04-04T17:17:52;5.00;;;2.28;;
39848;SDS011;25518;47.878;15.914;2023-04-04T17:20:42;14.13;;;5.72;;
39848;SDS011;25518;47.878;15.914;2023-04-04T17:23:31;13.40;;;6.43;;
39848;SDS011;25518;47.878;15.914;2023-04-04T17:26:21;6.38;;;3.17;;
39848;SDS011;25518;47.878;15.914;2023-04-04T17:29:11;5.40;;;2.55;;
39848;SDS011;25518;47.878;15.914;2023-04-04T17:32:01;6.20;;;2.67;;
39848;SDS011;25518;47.878;15.914;2023-04-04T17:34:52;6.97;;;2.90;;
39848;SDS011;25518;47.878;15.914;2023-04-04T17:37:41;5.68;;;2.85;;
39848;SDS011;25518;47.878;15.914;2023-04-04T17:40:31;5.60;;;2.92;;
39848;SDS011;25518;47.878;15.914;2023-04-04T17:43:21;5.35;;;2.38;;
39848;SDS011;25518;47.878;15.914;2023-04-04T17:46:10;4.90;;;1.80;;
39848;SDS011;25518;47.878;15.914;2023-04-04T17:49:00;5.40;;;2.63;;
39848;SDS011;25518;47.878;15.914;2023-04-04T17:51:49;5.30;;;2.45;;
39848;SDS011;25518;47.878;15.914;2023-04-04T17:54:39;5.28;;;2.65;;
39848;SDS011;25518;47.878;15.914;2023-04-04T17:57:30;5.30;;;2.35;;
39848;SDS011;25518;47.878;15.914;2023-04-04T18:00:21;5.00;;;2.45;;